sensor_id;sensor_type;location;lat;lon;timestamp;temperature;humidity
40756;DHT22;26461;45.630;9.418;2022-11-15T00:01:20;8.40;99.90
40756;DHT22;26461;45.630;9.418;2022-11-15T00:04:49;8.40;99.90
40756;DHT22;26461;45.630;9.418;2022-11-15T00:08:21;8.40;99.90
40756;DHT22;26461;45.630;9.418;2022-11-15T00:11:51;8.40;99.90
40756;DHT22;26461;45.630;9.418;2022-11-15T00:15:16;8.40;99.90
40756;DHT22;26461;45.630;9.418;2022-11-15T00:18:45;8.40;99.90
40756;DHT22;26461;45.630;9.418;2022-11-15T00:22:10;8.40;99.90
40756;DHT22;26461;45.630;9.418;2022-11-15T00:25:40;8.40;99.90
40756;DHT22;26461;45.630;9.418;2022-11-15T00:29:04;8.40;99.90
40756;DHT22;26461;45.630;9.418;2022-11-15T00:32:33;8.40;99.90
40756;DHT22;26461;45.630;9.418;2022-11-15T00:36:07;8.40;99.90
40756;DHT22;26461;45.630;9.418;2022-11-15T00:39:39;8.40;99.90
40756;DHT22;26461;45.630;9.418;2022-11-15T00:43:04;8.40;99.90
40756;DHT22;26461;45.630;9.418;2022-11-15T00:46:39;8.40;99.90
40756;DHT22;26461;45.630;9.418;2022-11-15T00:50:08;8.40;99.90
40756;DHT22;26461;45.630;9.418;2022-11-15T00:53:37;8.40;99.90
40756;DHT22;26461;45.630;9.418;2022-11-15T00:57:07;8.40;99.90
40756;DHT22;26461;45.630;9.418;2022-11-15T01:00:34;8.40;99.90
40756;DHT22;26461;45.630;9.418;2022-11-15T01:04:10;8.40;99.90
40756;DHT22;26461;45.630;9.418;2022-11-15T01:07:39;8.40;99.90
40756;DHT22;26461;45.630;9.418;2022-11-15T01:11:11;8.30;99.90
40756;DHT22;26461;45.630;9.418;2022-11-15T01:14:43;8.20;99.90
40756;DHT22;26461;45.630;9.418;2022-11-15T01:18:07;8.20;99.90
40756;DHT22;26461;45.630;9.418;2022-11-15T01:21:39;8.10;99.90
40756;DHT22;26461;45.630;9.418;2022-11-15T01:25:08;8.10;99.90
40756;DHT22;26461;45.630;9.418;2022-11-15T01:28:47;8.10;99.90
40756;DHT22;26461;45.630;9.418;2022-11-15T01:32:19;8.10;99.90
40756;DHT22;26461;45.630;9.418;2022-11-15T01:35:48;8.20;99.90
40756;DHT22;26461;45.630;9.418;2022-11-15T01:39:18;8.20;99.90
40756;DHT22;26461;45.630;9.418;2022-11-15T01:42:51;8.30;99.90
40756;DHT22;26461;45.630;9.418;2022-11-15T01:46:29;8.30;99.90
40756;DHT22;26461;45.630;9.418;2022-11-15T01:50:04;8.30;99.90
40756;DHT22;26461;45.630;9.418;2022-11-15T01:53:37;8.30;99.90
40756;DHT22;26461;45.630;9.418;2022-11-15T01:57:06;8.30;99.90
40756;DHT22;26461;45.630;9.418;2022-11-15T02:00:40;8.20;99.90
40756;DHT22;26461;45.630;9.418;2022-11-15T02:04:28;8.20;99.90
40756;DHT22;26461;45.630;9.418;2022-11-15T02:08:00;8.10;99.90
40756;DHT22;26461;45.630;9.418;2022-11-15T02:11:29;8.00;99.90
40756;DHT22;26461;45.630;9.418;2022-11-15T02:14:54;8.00;99.90
40756;DHT22;26461;45.630;9.418;2022-11-15T02:18:27;7.90;99.90
40756;DHT22;26461;45.630;9.418;2022-11-15T02:33:52;7.80;99.90
40756;DHT22;26461;45.630;9.418;2022-11-15T02:37:56;7.90;99.90
40756;DHT22;26461;45.630;9.418;2022-11-15T02:41:32;7.90;99.90
40756;DHT22;26461;45.630;9.418;2022-11-15T02:45:08;8.00;99.90
40756;DHT22;26461;45.630;9.418;2022-11-15T02:48:41;8.00;99.90
40756;DHT22;26461;45.630;9.418;2022-11-15T02:52:17;8.10;99.90
40756;DHT22;26461;45.630;9.418;2022-11-15T02:55:53;8.10;99.90
40756;DHT22;26461;45.630;9.418;2022-11-15T03:03:29;8.00;99.90
40756;DHT22;26461;45.630;9.418;2022-11-15T03:07:16;8.00;99.90
40756;DHT22;26461;45.630;9.418;2022-11-15T03:11:05;8.00;99.90
40756;DHT22;26461;45.630;9.418;2022-11-15T03:15:00;7.90;99.90
40756;DHT22;26461;45.630;9.418;2022-11-15T03:18:35;7.90;99.90
40756;DHT22;26461;45.630;9.418;2022-11-15T03:22:11;7.90;99.90
40756;DHT22;26461;45.630;9.418;2022-11-15T03:25:47;7.80;99.90
40756;DHT22;26461;45.630;9.418;2022-11-15T03:29:31;7.70;99.90
40756;DHT22;26461;45.630;9.418;2022-11-15T03:33:08;7.70;99.90
40756;DHT22;26461;45.630;9.418;2022-11-15T03:36:34;7.70;99.90
40756;DHT22;26461;45.630;9.418;2022-11-15T03:40:04;7.80;99.90
40756;DHT22;26461;45.630;9.418;2022-11-15T03:48:17;7.90;99.90
40756;DHT22;26461;45.630;9.418;2022-11-15T03:51:42;7.90;99.90
40756;DHT22;26461;45.630;9.418;2022-11-15T03:55:15;7.90;99.90
40756;DHT22;26461;45.630;9.418;2022-11-15T03:58:45;8.00;99.90
40756;DHT22;26461;45.630;9.418;2022-11-15T04:02:15;8.00;99.90
40756;DHT22;26461;45.630;9.418;2022-11-15T04:05:47;8.00;99.90
40756;DHT22;26461;45.630;9.418;2022-11-15T04:09:17;8.00;99.90
40756;DHT22;26461;45.630;9.418;2022-11-15T04:12:47;8.00;99.90
40756;DHT22;26461;45.630;9.418;2022-11-15T04:16:15;8.10;99.90
40756;DHT22;26461;45.630;9.418;2022-11-15T04:19:50;8.10;99.90
40756;DHT22;26461;45.630;9.418;2022-11-15T04:23:38;8.10;99.90
40756;DHT22;26461;45.630;9.418;2022-11-15T04:27:27;8.10;99.90
40756;DHT22;26461;45.630;9.418;2022-11-15T04:30:59;8.20;99.90
40756;DHT22;26461;45.630;9.418;2022-11-15T04:34:29;8.20;99.90
40756;DHT22;26461;45.630;9.418;2022-11-15T04:37:59;8.20;99.90
40756;DHT22;26461;45.630;9.418;2022-11-15T04:41:24;8.30;99.90
40756;DHT22;26461;45.630;9.418;2022-11-15T04:44:57;8.30;99.90
40756;DHT22;26461;45.630;9.418;2022-11-15T04:48:26;8.30;99.90
40756;DHT22;26461;45.630;9.418;2022-11-15T04:51:54;8.30;99.90
40756;DHT22;26461;45.630;9.418;2022-11-15T04:55:23;8.30;99.90
40756;DHT22;26461;45.630;9.418;2022-11-15T04:58:52;8.40;99.90
40756;DHT22;26461;45.630;9.418;2022-11-15T05:02:23;8.40;99.90
40756;DHT22;26461;45.630;9.418;2022-11-15T05:05:47;8.40;99.90
40756;DHT22;26461;45.630;9.418;2022-11-15T05:09:11;8.40;99.90
40756;DHT22;26461;45.630;9.418;2022-11-15T05:12:42;8.40;99.90
40756;DHT22;26461;45.630;9.418;2022-11-15T05:16:13;8.50;99.90
40756;DHT22;26461;45.630;9.418;2022-11-15T05:19:45;8.50;99.90
40756;DHT22;26461;45.630;9.418;2022-11-15T05:23:14;8.60;99.90
40756;DHT22;26461;45.630;9.418;2022-11-15T05:26:44;8.50;99.90
40756;DHT22;26461;45.630;9.418;2022-11-15T05:30:08;8.50;99.90
40756;DHT22;26461;45.630;9.418;2022-11-15T05:33:41;8.60;99.90
40756;DHT22;26461;45.630;9.418;2022-11-15T05:37:07;8.50;99.90
40756;DHT22;26461;45.630;9.418;2022-11-15T05:40:36;8.60;99.90
40756;DHT22;26461;45.630;9.418;2022-11-15T05:44:07;8.60;99.90
40756;DHT22;26461;45.630;9.418;2022-11-15T05:47:41;8.60;99.90
40756;DHT22;26461;45.630;9.418;2022-11-15T05:51:17;8.70;99.90
40756;DHT22;26461;45.630;9.418;2022-11-15T05:54:48;8.70;99.90
40756;DHT22;26461;45.630;9.418;2022-11-15T05:58:18;8.70;99.90
40756;DHT22;26461;45.630;9.418;2022-11-15T06:01:54;8.70;99.90
40756;DHT22;26461;45.630;9.418;2022-11-15T06:05:19;8.70;99.90
40756;DHT22;26461;45.630;9.418;2022-11-15T06:08:49;8.70;99.90
40756;DHT22;26461;45.630;9.418;2022-11-15T06:12:21;8.70;99.90
40756;DHT22;26461;45.630;9.418;2022-11-15T06:15:55;8.80;99.90
40756;DHT22;26461;45.630;9.418;2022-11-15T06:19:25;8.80;99.90
40756;DHT22;26461;45.630;9.418;2022-11-15T06:22:58;8.80;99.90
40756;DHT22;26461;45.630;9.418;2022-11-15T06:26:23;8.80;99.90
40756;DHT22;26461;45.630;9.418;2022-11-15T06:29:50;8.80;99.90
40756;DHT22;26461;45.630;9.418;2022-11-15T06:33:22;8.80;99.90
40756;DHT22;26461;45.630;9.418;2022-11-15T06:36:58;8.80;99.90
40756;DHT22;26461;45.630;9.418;2022-11-15T06:40:27;8.70;99.90
40756;DHT22;26461;45.630;9.418;2022-11-15T06:44:00;8.70;99.90
40756;DHT22;26461;45.630;9.418;2022-11-15T06:47:33;8.60;99.90
40756;DHT22;26461;45.630;9.418;2022-11-15T06:51:08;8.60;99.90
40756;DHT22;26461;45.630;9.418;2022-11-15T06:54:33;8.60;99.90
40756;DHT22;26461;45.630;9.418;2022-11-15T06:58:07;8.70;99.90
40756;DHT22;26461;45.630;9.418;2022-11-15T07:01:39;8.60;99.90
40756;DHT22;26461;45.630;9.418;2022-11-15T07:05:09;8.70;99.90
40756;DHT22;26461;45.630;9.418;2022-11-15T07:08:39;8.70;99.90
40756;DHT22;26461;45.630;9.418;2022-11-15T07:12:05;8.70;99.90
40756;DHT22;26461;45.630;9.418;2022-11-15T07:15:32;8.70;99.90
40756;DHT22;26461;45.630;9.418;2022-11-15T07:18:57;8.70;99.90
40756;DHT22;26461;45.630;9.418;2022-11-15T07:22:21;8.70;99.90
40756;DHT22;26461;45.630;9.418;2022-11-15T07:25:48;8.70;99.90
40756;DHT22;26461;45.630;9.418;2022-11-15T07:29:17;8.70;99.90
40756;DHT22;26461;45.630;9.418;2022-11-15T07:32:51;8.80;99.90
40756;DHT22;26461;45.630;9.418;2022-11-15T07:36:22;8.80;99.90
40756;DHT22;26461;45.630;9.418;2022-11-15T07:39:53;8.80;99.90
40756;DHT22;26461;45.630;9.418;2022-11-15T07:43:26;8.80;99.90
40756;DHT22;26461;45.630;9.418;2022-11-15T07:46:55;8.70;99.90
40756;DHT22;26461;45.630;9.418;2022-11-15T07:50:25;8.70;99.90
40756;DHT22;26461;45.630;9.418;2022-11-15T07:53:55;8.70;99.90
40756;DHT22;26461;45.630;9.418;2022-11-15T07:57:27;8.70;99.90
40756;DHT22;26461;45.630;9.418;2022-11-15T08:00:58;8.80;99.90
40756;DHT22;26461;45.630;9.418;2022-11-15T08:04:27;8.80;99.90
40756;DHT22;26461;45.630;9.418;2022-11-15T08:07:57;8.80;99.90
40756;DHT22;26461;45.630;9.418;2022-11-15T08:11:21;8.80;99.90
40756;DHT22;26461;45.630;9.418;2022-11-15T08:14:54;8.90;99.90
40756;DHT22;26461;45.630;9.418;2022-11-15T08:18:24;8.90;99.90
40756;DHT22;26461;45.630;9.418;2022-11-15T08:21:48;9.00;99.90
40756;DHT22;26461;45.630;9.418;2022-11-15T08:25:15;9.00;99.90
40756;DHT22;26461;45.630;9.418;2022-11-15T08:28:44;9.10;99.90
40756;DHT22;26461;45.630;9.418;2022-11-15T08:32:14;9.10;99.90
40756;DHT22;26461;45.630;9.418;2022-11-15T08:35:44;9.20;99.90
40756;DHT22;26461;45.630;9.418;2022-11-15T08:39:13;9.20;99.90
40756;DHT22;26461;45.630;9.418;2022-11-15T08:42:37;9.30;99.90
40756;DHT22;26461;45.630;9.418;2022-11-15T08:46:17;9.30;99.90
40756;DHT22;26461;45.630;9.418;2022-11-15T08:49:47;9.30;99.90
40756;DHT22;26461;45.630;9.418;2022-11-15T08:53:16;9.40;99.90
40756;DHT22;26461;45.630;9.418;2022-11-15T08:56:45;9.40;99.90
40756;DHT22;26461;45.630;9.418;2022-11-15T09:00:15;9.40;99.90
40756;DHT22;26461;45.630;9.418;2022-11-15T09:03:47;9.50;99.90
40756;DHT22;26461;45.630;9.418;2022-11-15T09:07:16;9.50;99.90
40756;DHT22;26461;45.630;9.418;2022-11-15T09:10:45;9.60;99.90
40756;DHT22;26461;45.630;9.418;2022-11-15T09:14:16;9.60;99.90
40756;DHT22;26461;45.630;9.418;2022-11-15T09:17:48;9.70;99.90
40756;DHT22;26461;45.630;9.418;2022-11-15T09:21:13;9.70;99.90
40756;DHT22;26461;45.630;9.418;2022-11-15T09:24:47;9.70;99.90
40756;DHT22;26461;45.630;9.418;2022-11-15T09:28:18;9.80;99.90
40756;DHT22;26461;45.630;9.418;2022-11-15T09:31:59;9.80;99.90
40756;DHT22;26461;45.630;9.418;2022-11-15T09:35:29;9.90;99.90
40756;DHT22;26461;45.630;9.418;2022-11-15T09:39:06;9.90;99.90
40756;DHT22;26461;45.630;9.418;2022-11-15T09:50:46;9.90;99.90
40756;DHT22;26461;45.630;9.418;2022-11-15T09:54:11;10.00;99.90
40756;DHT22;26461;45.630;9.418;2022-11-15T09:57:41;10.00;99.90
40756;DHT22;26461;45.630;9.418;2022-11-15T10:00:54;10.10;99.90
40756;DHT22;26461;45.630;9.418;2022-11-15T10:04:14;10.10;99.90
40756;DHT22;26461;45.630;9.418;2022-11-15T10:11:35;10.20;99.90
40756;DHT22;26461;45.630;9.418;2022-11-15T10:15:09;10.30;99.90
40756;DHT22;26461;45.630;9.418;2022-11-15T10:22:31;10.30;99.90
40756;DHT22;26461;45.630;9.418;2022-11-15T10:25:43;10.30;99.90
40756;DHT22;26461;45.630;9.418;2022-11-15T10:28:57;10.30;99.90
40756;DHT22;26461;45.630;9.418;2022-11-15T10:32:15;10.40;99.90
40756;DHT22;26461;45.630;9.418;2022-11-15T10:35:25;10.30;99.90
40756;DHT22;26461;45.630;9.418;2022-11-15T10:42:15;10.30;99.90
40756;DHT22;26461;45.630;9.418;2022-11-15T10:45:27;10.30;99.90
40756;DHT22;26461;45.630;9.418;2022-11-15T10:48:35;10.30;99.90
40756;DHT22;26461;45.630;9.418;2022-11-15T10:52:18;10.30;99.90
40756;DHT22;26461;45.630;9.418;2022-11-15T10:55:31;10.30;99.90
40756;DHT22;26461;45.630;9.418;2022-11-15T10:58:56;10.30;99.90
40756;DHT22;26461;45.630;9.418;2022-11-15T11:02:36;10.30;99.90
40756;DHT22;26461;45.630;9.418;2022-11-15T11:06:08;10.30;99.90
40756;DHT22;26461;45.630;9.418;2022-11-15T11:09:38;10.30;99.90
40756;DHT22;26461;45.630;9.418;2022-11-15T11:13:04;10.30;99.90
40756;DHT22;26461;45.630;9.418;2022-11-15T11:16:50;10.30;99.90
40756;DHT22;26461;45.630;9.418;2022-11-15T11:24:04;10.40;99.90
40756;DHT22;26461;45.630;9.418;2022-11-15T11:31:25;10.40;99.90
40756;DHT22;26461;45.630;9.418;2022-11-15T11:39:20;10.40;99.90
40756;DHT22;26461;45.630;9.418;2022-11-15T11:49:59;10.30;99.90
40756;DHT22;26461;45.630;9.418;2022-11-15T11:53:26;10.30;99.90
40756;DHT22;26461;45.630;9.418;2022-11-15T11:56:35;10.30;99.90
40756;DHT22;26461;45.630;9.418;2022-11-15T12:00:25;10.30;99.90
40756;DHT22;26461;45.630;9.418;2022-11-15T12:07:04;10.30;99.90
40756;DHT22;26461;45.630;9.418;2022-11-15T12:10:22;10.30;99.90
40756;DHT22;26461;45.630;9.418;2022-11-15T12:13:34;10.30;99.90
40756;DHT22;26461;45.630;9.418;2022-11-15T12:16:47;10.30;99.90
40756;DHT22;26461;45.630;9.418;2022-11-15T12:20:20;10.30;99.90
40756;DHT22;26461;45.630;9.418;2022-11-15T12:23:30;10.40;99.90
40756;DHT22;26461;45.630;9.418;2022-11-15T12:30:21;10.40;99.90
40756;DHT22;26461;45.630;9.418;2022-11-15T12:33:47;10.40;99.90
40756;DHT22;26461;45.630;9.418;2022-11-15T12:41:18;10.40;99.90
40756;DHT22;26461;45.630;9.418;2022-11-15T12:47:50;10.40;99.90
40756;DHT22;26461;45.630;9.418;2022-11-15T12:50:58;10.40;99.90
40756;DHT22;26461;45.630;9.418;2022-11-15T12:57:45;10.40;99.90
40756;DHT22;26461;45.630;9.418;2022-11-15T13:00:58;10.40;99.90
40756;DHT22;26461;45.630;9.418;2022-11-15T13:14:50;10.30;99.90
40756;DHT22;26461;45.630;9.418;2022-11-15T13:18:35;10.40;99.90
40756;DHT22;26461;45.630;9.418;2022-11-15T13:21:50;10.30;99.90
40756;DHT22;26461;45.630;9.418;2022-11-15T13:25:40;10.40;99.90
40756;DHT22;26461;45.630;9.418;2022-11-15T13:28:53;10.30;99.90
40756;DHT22;26461;45.630;9.418;2022-11-15T13:32:14;10.30;99.90
40756;DHT22;26461;45.630;9.418;2022-11-15T13:35:23;10.30;99.90
40756;DHT22;26461;45.630;9.418;2022-11-15T13:38:34;10.30;99.90
40756;DHT22;26461;45.630;9.418;2022-11-15T13:41:52;10.30;99.90
40756;DHT22;26461;45.630;9.418;2022-11-15T13:45:03;10.30;99.90
40756;DHT22;26461;45.630;9.418;2022-11-15T13:48:18;10.30;99.90
40756;DHT22;26461;45.630;9.418;2022-11-15T13:51:38;10.30;99.90
40756;DHT22;26461;45.630;9.418;2022-11-15T13:55:10;10.30;99.90
40756;DHT22;26461;45.630;9.418;2022-11-15T13:58:30;10.30;99.90
40756;DHT22;26461;45.630;9.418;2022-11-15T14:01:41;10.30;99.90
40756;DHT22;26461;45.630;9.418;2022-11-15T14:05:15;10.30;99.90
40756;DHT22;26461;45.630;9.418;2022-11-15T14:08:23;10.30;99.90
40756;DHT22;26461;45.630;9.418;2022-11-15T14:11:29;10.30;99.90
40756;DHT22;26461;45.630;9.418;2022-11-15T14:14:47;10.30;99.90
40756;DHT22;26461;45.630;9.418;2022-11-15T14:17:53;10.30;99.90
40756;DHT22;26461;45.630;9.418;2022-11-15T14:21:13;10.30;99.90
40756;DHT22;26461;45.630;9.418;2022-11-15T14:24:21;10.30;99.90
40756;DHT22;26461;45.630;9.418;2022-11-15T14:27:29;10.30;99.90
40756;DHT22;26461;45.630;9.418;2022-11-15T14:30:43;10.30;99.90
40756;DHT22;26461;45.630;9.418;2022-11-15T14:34:00;10.30;99.90
40756;DHT22;26461;45.630;9.418;2022-11-15T14:37:30;10.20;99.90
40756;DHT22;26461;45.630;9.418;2022-11-15T14:40:40;10.20;99.90
40756;DHT22;26461;45.630;9.418;2022-11-15T14:43:53;10.20;99.90
40756;DHT22;26461;45.630;9.418;2022-11-15T14:47:10;10.20;99.90
40756;DHT22;26461;45.630;9.418;2022-11-15T14:50:24;10.20;99.90
40756;DHT22;26461;45.630;9.418;2022-11-15T14:53:32;10.20;99.90
40756;DHT22;26461;45.630;9.418;2022-11-15T14:56:38;10.20;99.90
40756;DHT22;26461;45.630;9.418;2022-11-15T14:59:47;10.20;99.90
40756;DHT22;26461;45.630;9.418;2022-11-15T15:02:53;10.20;99.90
40756;DHT22;26461;45.630;9.418;2022-11-15T15:06:12;10.10;99.90
40756;DHT22;26461;45.630;9.418;2022-11-15T15:09:21;10.10;99.90
40756;DHT22;26461;45.630;9.418;2022-11-15T15:12:32;10.00;99.90
40756;DHT22;26461;45.630;9.418;2022-11-15T15:15:38;10.00;99.90
40756;DHT22;26461;45.630;9.418;2022-11-15T15:18:58;10.00;99.90
40756;DHT22;26461;45.630;9.418;2022-11-15T15:22:15;10.00;99.90
40756;DHT22;26461;45.630;9.418;2022-11-15T15:25:34;9.90;99.90
40756;DHT22;26461;45.630;9.418;2022-11-15T15:28:41;9.90;99.90
40756;DHT22;26461;45.630;9.418;2022-11-15T15:31:50;9.90;99.90
40756;DHT22;26461;45.630;9.418;2022-11-15T15:35:01;9.90;99.90
40756;DHT22;26461;45.630;9.418;2022-11-15T15:38:11;9.90;99.90
40756;DHT22;26461;45.630;9.418;2022-11-15T15:41:23;9.90;99.90
40756;DHT22;26461;45.630;9.418;2022-11-15T15:44:34;9.90;99.90
40756;DHT22;26461;45.630;9.418;2022-11-15T15:47:49;9.90;99.90
40756;DHT22;26461;45.630;9.418;2022-11-15T15:51:10;9.90;99.90
40756;DHT22;26461;45.630;9.418;2022-11-15T15:54:23;9.90;99.90
40756;DHT22;26461;45.630;9.418;2022-11-15T15:57:33;9.90;99.90
40756;DHT22;26461;45.630;9.418;2022-11-15T16:00:39;9.90;99.90
40756;DHT22;26461;45.630;9.418;2022-11-15T16:03:49;9.90;99.90
40756;DHT22;26461;45.630;9.418;2022-11-15T16:07:01;9.90;99.90
40756;DHT22;26461;45.630;9.418;2022-11-15T16:13:24;9.90;99.90
40756;DHT22;26461;45.630;9.418;2022-11-15T16:16:36;9.90;99.90
40756;DHT22;26461;45.630;9.418;2022-11-15T16:19:41;9.90;99.90
40756;DHT22;26461;45.630;9.418;2022-11-15T16:22:52;9.90;99.90
40756;DHT22;26461;45.630;9.418;2022-11-15T16:29:31;10.00;99.90
40756;DHT22;26461;45.630;9.418;2022-11-15T16:32:41;10.00;99.90
40756;DHT22;26461;45.630;9.418;2022-11-15T16:35:47;10.00;99.90
40756;DHT22;26461;45.630;9.418;2022-11-15T16:38:56;10.00;99.90
40756;DHT22;26461;45.630;9.418;2022-11-15T16:42:06;10.00;99.90
40756;DHT22;26461;45.630;9.418;2022-11-15T16:45:17;10.00;99.90
40756;DHT22;26461;45.630;9.418;2022-11-15T16:48:27;10.00;99.90
40756;DHT22;26461;45.630;9.418;2022-11-15T16:51:38;10.00;99.90
40756;DHT22;26461;45.630;9.418;2022-11-15T16:54:50;10.00;99.90
40756;DHT22;26461;45.630;9.418;2022-11-15T16:58:01;10.00;99.90
40756;DHT22;26461;45.630;9.418;2022-11-15T17:01:17;10.00;99.90
40756;DHT22;26461;45.630;9.418;2022-11-15T17:04:28;10.00;99.90
40756;DHT22;26461;45.630;9.418;2022-11-15T17:07:38;10.00;99.90
40756;DHT22;26461;45.630;9.418;2022-11-15T17:10:43;9.90;99.90
40756;DHT22;26461;45.630;9.418;2022-11-15T17:13:49;9.90;99.90
40756;DHT22;26461;45.630;9.418;2022-11-15T17:16:54;9.90;99.90
40756;DHT22;26461;45.630;9.418;2022-11-15T17:20:00;9.90;99.90
40756;DHT22;26461;45.630;9.418;2022-11-15T17:23:13;9.90;99.90
40756;DHT22;26461;45.630;9.418;2022-11-15T17:26:24;9.90;99.90
40756;DHT22;26461;45.630;9.418;2022-11-15T17:29:34;9.90;99.90
40756;DHT22;26461;45.630;9.418;2022-11-15T17:32:45;9.90;99.90
40756;DHT22;26461;45.630;9.418;2022-11-15T17:35:59;9.90;99.90
40756;DHT22;26461;45.630;9.418;2022-11-15T17:39:08;9.90;99.90
40756;DHT22;26461;45.630;9.418;2022-11-15T17:42:18;9.90;99.90
40756;DHT22;26461;45.630;9.418;2022-11-15T17:45:24;9.80;99.90
40756;DHT22;26461;45.630;9.418;2022-11-15T17:48:35;9.80;99.90
40756;DHT22;26461;45.630;9.418;2022-11-15T17:51:40;9.80;99.90
40756;DHT22;26461;45.630;9.418;2022-11-15T17:54:51;9.80;99.90
40756;DHT22;26461;45.630;9.418;2022-11-15T17:58:02;9.80;99.90
40756;DHT22;26461;45.630;9.418;2022-11-15T18:01:27;9.80;99.90
40756;DHT22;26461;45.630;9.418;2022-11-15T18:04:33;9.70;99.90
40756;DHT22;26461;45.630;9.418;2022-11-15T18:07:52;9.70;99.90
40756;DHT22;26461;45.630;9.418;2022-11-15T18:11:13;9.80;99.90
40756;DHT22;26461;45.630;9.418;2022-11-15T18:14:23;9.70;99.90
40756;DHT22;26461;45.630;9.418;2022-11-15T18:17:34;9.70;99.90
40756;DHT22;26461;45.630;9.418;2022-11-15T18:20:40;9.70;99.90
40756;DHT22;26461;45.630;9.418;2022-11-15T18:23:48;9.70;99.90
40756;DHT22;26461;45.630;9.418;2022-11-15T18:26:59;9.70;99.90
40756;DHT22;26461;45.630;9.418;2022-11-15T18:30:05;9.70;99.90
40756;DHT22;26461;45.630;9.418;2022-11-15T18:33:11;9.70;99.90
40756;DHT22;26461;45.630;9.418;2022-11-15T18:36:27;9.70;99.90
40756;DHT22;26461;45.630;9.418;2022-11-15T18:39:33;9.70;99.90
40756;DHT22;26461;45.630;9.418;2022-11-15T18:42:44;9.70;99.90
40756;DHT22;26461;45.630;9.418;2022-11-15T18:45:49;9.70;99.90
40756;DHT22;26461;45.630;9.418;2022-11-15T18:48:55;9.70;99.90
40756;DHT22;26461;45.630;9.418;2022-11-15T18:52:05;9.70;99.90
40756;DHT22;26461;45.630;9.418;2022-11-15T18:55:13;9.70;99.90
40756;DHT22;26461;45.630;9.418;2022-11-15T18:58:18;9.70;99.90
40756;DHT22;26461;45.630;9.418;2022-11-15T19:01:31;9.60;99.90
40756;DHT22;26461;45.630;9.418;2022-11-15T19:04:45;9.60;99.90
40756;DHT22;26461;45.630;9.418;2022-11-15T19:07:50;9.70;99.90
40756;DHT22;26461;45.630;9.418;2022-11-15T19:11:03;9.60;99.90
40756;DHT22;26461;45.630;9.418;2022-11-15T19:14:16;9.60;99.90
40756;DHT22;26461;45.630;9.418;2022-11-15T19:17:27;9.60;99.90
40756;DHT22;26461;45.630;9.418;2022-11-15T19:20:34;9.60;99.90
40756;DHT22;26461;45.630;9.418;2022-11-15T19:23:43;9.60;99.90
40756;DHT22;26461;45.630;9.418;2022-11-15T19:26:49;9.60;99.90
40756;DHT22;26461;45.630;9.418;2022-11-15T19:29:55;9.70;99.90
40756;DHT22;26461;45.630;9.418;2022-11-15T19:33:07;9.70;99.90
40756;DHT22;26461;45.630;9.418;2022-11-15T19:36:22;9.70;99.90
40756;DHT22;26461;45.630;9.418;2022-11-15T19:39:44;9.70;99.90
40756;DHT22;26461;45.630;9.418;2022-11-15T19:43:01;9.70;99.90
40756;DHT22;26461;45.630;9.418;2022-11-15T19:46:18;9.70;99.90
40756;DHT22;26461;45.630;9.418;2022-11-15T19:49:34;9.70;99.90
40756;DHT22;26461;45.630;9.418;2022-11-15T19:52:52;9.70;99.90
40756;DHT22;26461;45.630;9.418;2022-11-15T19:56:03;9.70;99.90
40756;DHT22;26461;45.630;9.418;2022-11-15T19:59:16;9.70;99.90
40756;DHT22;26461;45.630;9.418;2022-11-15T20:02:29;9.70;99.90
40756;DHT22;26461;45.630;9.418;2022-11-15T20:05:43;9.70;99.90
40756;DHT22;26461;45.630;9.418;2022-11-15T20:08:53;9.70;99.90
40756;DHT22;26461;45.630;9.418;2022-11-15T20:12:12;9.70;99.90
40756;DHT22;26461;45.630;9.418;2022-11-15T20:15:27;9.70;99.90
40756;DHT22;26461;45.630;9.418;2022-11-15T20:18:52;9.70;99.90
40756;DHT22;26461;45.630;9.418;2022-11-15T20:22:10;9.70;99.90
40756;DHT22;26461;45.630;9.418;2022-11-15T20:25:21;9.70;99.90
40756;DHT22;26461;45.630;9.418;2022-11-15T20:28:28;9.70;99.90
40756;DHT22;26461;45.630;9.418;2022-11-15T20:31:34;9.70;99.90
40756;DHT22;26461;45.630;9.418;2022-11-15T20:34:50;9.70;99.90
40756;DHT22;26461;45.630;9.418;2022-11-15T20:37:56;9.70;99.90
40756;DHT22;26461;45.630;9.418;2022-11-15T20:41:02;9.70;99.90
40756;DHT22;26461;45.630;9.418;2022-11-15T20:44:14;9.70;99.90
40756;DHT22;26461;45.630;9.418;2022-11-15T20:47:29;9.70;99.90
40756;DHT22;26461;45.630;9.418;2022-11-15T20:50:35;9.70;99.90
40756;DHT22;26461;45.630;9.418;2022-11-15T20:53:43;9.70;99.90
40756;DHT22;26461;45.630;9.418;2022-11-15T20:56:53;9.70;99.90
40756;DHT22;26461;45.630;9.418;2022-11-15T21:00:03;9.70;99.90
40756;DHT22;26461;45.630;9.418;2022-11-15T21:03:09;9.80;99.90
40756;DHT22;26461;45.630;9.418;2022-11-15T21:06:16;9.80;99.90
40756;DHT22;26461;45.630;9.418;2022-11-15T21:09:24;9.80;99.90
40756;DHT22;26461;45.630;9.418;2022-11-15T21:12:48;9.80;99.90
40756;DHT22;26461;45.630;9.418;2022-11-15T21:15:56;9.80;99.90
40756;DHT22;26461;45.630;9.418;2022-11-15T21:19:03;9.80;99.90
40756;DHT22;26461;45.630;9.418;2022-11-15T21:22:16;9.80;99.90
40756;DHT22;26461;45.630;9.418;2022-11-15T21:25:26;9.80;99.90
40756;DHT22;26461;45.630;9.418;2022-11-15T21:28:39;9.80;99.90
40756;DHT22;26461;45.630;9.418;2022-11-15T21:31:51;9.70;99.90
40756;DHT22;26461;45.630;9.418;2022-11-15T21:35:04;9.80;99.90
40756;DHT22;26461;45.630;9.418;2022-11-15T21:38:10;9.80;99.90
40756;DHT22;26461;45.630;9.418;2022-11-15T21:41:22;9.70;99.90
40756;DHT22;26461;45.630;9.418;2022-11-15T21:44:34;9.70;99.90
40756;DHT22;26461;45.630;9.418;2022-11-15T21:47:42;9.80;99.90
40756;DHT22;26461;45.630;9.418;2022-11-15T21:54:06;9.80;99.90
40756;DHT22;26461;45.630;9.418;2022-11-15T21:57:12;9.80;99.90
40756;DHT22;26461;45.630;9.418;2022-11-15T22:00:19;9.80;99.90
40756;DHT22;26461;45.630;9.418;2022-11-15T22:03:44;9.80;99.90
40756;DHT22;26461;45.630;9.418;2022-11-15T22:06:53;9.70;99.90
40756;DHT22;26461;45.630;9.418;2022-11-15T22:09:59;9.80;99.90
40756;DHT22;26461;45.630;9.418;2022-11-15T22:13:11;9.80;99.90
40756;DHT22;26461;45.630;9.418;2022-11-15T22:16:17;9.80;99.90
40756;DHT22;26461;45.630;9.418;2022-11-15T22:19:23;9.80;99.90
40756;DHT22;26461;45.630;9.418;2022-11-15T22:22:34;9.80;99.90
40756;DHT22;26461;45.630;9.418;2022-11-15T22:25:44;9.80;99.90
40756;DHT22;26461;45.630;9.418;2022-11-15T22:28:50;9.80;99.90
40756;DHT22;26461;45.630;9.418;2022-11-15T22:31:55;9.80;99.90
40756;DHT22;26461;45.630;9.418;2022-11-15T22:35:07;9.80;99.90
40756;DHT22;26461;45.630;9.418;2022-11-15T22:38:13;9.80;99.90
40756;DHT22;26461;45.630;9.418;2022-11-15T22:41:23;9.80;99.90
40756;DHT22;26461;45.630;9.418;2022-11-15T22:44:29;9.80;99.90
40756;DHT22;26461;45.630;9.418;2022-11-15T22:47:35;9.80;99.90
40756;DHT22;26461;45.630;9.418;2022-11-15T22:50:41;9.80;99.90
40756;DHT22;26461;45.630;9.418;2022-11-15T22:53:52;9.80;99.90
40756;DHT22;26461;45.630;9.418;2022-11-15T22:56:57;9.80;99.90
40756;DHT22;26461;45.630;9.418;2022-11-15T23:00:10;9.80;99.90
40756;DHT22;26461;45.630;9.418;2022-11-15T23:03:18;9.80;99.90